createdAt,value
2018-03-28T00:01:50.834Z,28.30
2018-03-28T00:04:25.832Z,29.63
2018-03-28T00:07:00.948Z,29.67
2018-03-28T00:09:36.379Z,30.30
2018-03-28T00:12:11.735Z,29.17
2018-03-28T00:14:46.180Z,29.00
2018-03-28T00:17:21.522Z,28.43
2018-03-28T00:19:56.596Z,29.70
2018-03-28T00:22:31.551Z,29.00
2018-03-28T00:25:06.779Z,31.83
2018-03-28T00:27:41.667Z,27.50
2018-03-28T00:30:16.989Z,29.03
2018-03-28T00:32:52.492Z,28.87
2018-03-28T00:35:27.731Z,31.02
2018-03-28T00:38:02.276Z,29.30
2018-03-28T00:40:37.126Z,30.10
2018-03-28T00:43:11.996Z,29.10
2018-03-28T00:45:48.572Z,28.53
2018-03-28T00:48:23.568Z,29.37
2018-03-28T00:50:57.987Z,29.70
2018-03-28T00:53:33.526Z,30.60
2018-03-28T00:56:08.709Z,27.57
2018-03-28T00:58:43.491Z,31.20
2018-03-28T01:01:18.505Z,29.15
2018-03-28T01:03:53.660Z,28.70
2018-03-28T01:06:28.552Z,30.25
2018-03-28T01:09:03.232Z,29.57
2018-03-28T01:11:38.557Z,32.85
2018-03-28T01:14:13.659Z,29.67
2018-03-28T01:16:53.773Z,31.67
2018-03-28T01:19:28.790Z,31.27
2018-03-28T01:22:03.348Z,32.07
2018-03-28T01:24:38.244Z,29.80
2018-03-28T01:27:13.097Z,30.33
2018-03-28T01:29:48.734Z,30.87
2018-03-28T01:32:23.924Z,31.87
2018-03-28T01:34:58.759Z,31.90
2018-03-28T01:37:33.763Z,30.10
2018-03-28T01:40:08.679Z,30.80
2018-03-28T01:42:43.788Z,31.07
2018-03-28T01:45:18.680Z,33.75
2018-03-28T01:47:53.754Z,33.33
2018-03-28T01:50:28.711Z,31.40
2018-03-28T01:53:03.906Z,32.97
2018-03-28T01:55:38.683Z,31.95
2018-03-28T01:58:13.661Z,34.17
2018-03-28T02:00:48.607Z,32.55
2018-03-28T02:03:23.207Z,32.70
2018-03-28T02:05:58.143Z,33.63
2018-03-28T02:08:32.867Z,33.33
2018-03-28T02:11:07.943Z,34.10
2018-03-28T02:13:42.803Z,31.98
2018-03-28T02:16:17.511Z,33.72
2018-03-28T02:18:52.824Z,34.57
2018-03-28T02:21:27.662Z,32.70
2018-03-28T02:24:02.819Z,31.97
2018-03-28T02:26:37.748Z,33.70
2018-03-28T02:29:13.024Z,33.33
2018-03-28T02:31:47.957Z,34.53
2018-03-28T02:34:22.876Z,32.70
2018-03-28T02:36:58.716Z,32.22
2018-03-28T02:39:33.539Z,31.92
2018-03-28T02:42:08.388Z,33.50
2018-03-28T02:44:43.120Z,32.13
2018-03-28T02:47:18.252Z,31.27
2018-03-28T02:49:52.999Z,31.57
2018-03-28T02:52:28.013Z,32.27
2018-03-28T02:55:03.152Z,32.00
2018-03-28T02:57:38.003Z,32.20
2018-03-28T03:00:12.803Z,33.47
2018-03-28T03:02:47.851Z,29.83
2018-03-28T03:05:22.459Z,32.90
2018-03-28T03:07:57.871Z,33.40
2018-03-28T03:10:33.022Z,33.97
2018-03-28T03:13:07.899Z,34.53
2018-03-28T03:15:43.012Z,34.97
2018-03-28T03:18:17.996Z,31.17
2018-03-28T03:20:53.001Z,34.03
2018-03-28T03:23:28.204Z,34.15
2018-03-28T03:26:02.588Z,33.60
2018-03-28T03:28:37.385Z,32.80
2018-03-28T03:31:12.284Z,31.67
2018-03-28T03:33:47.510Z,29.10
2018-03-28T03:36:22.312Z,32.20
2018-03-28T03:38:57.255Z,32.43
2018-03-28T03:41:32.032Z,32.90
2018-03-28T03:44:07.143Z,32.73
2018-03-28T03:46:42.176Z,32.57
2018-03-28T03:49:17.620Z,32.70
2018-03-28T03:51:52.983Z,30.88
2018-03-28T03:54:27.591Z,31.70
2018-03-28T03:57:02.480Z,33.57
2018-03-28T03:59:37.396Z,31.87
2018-03-28T04:02:12.571Z,35.17
2018-03-28T04:04:47.251Z,35.10
2018-03-28T04:07:22.623Z,33.40
2018-03-28T04:09:57.342Z,33.50
2018-03-28T04:12:32.146Z,33.00
2018-03-28T04:15:07.999Z,34.07
2018-03-28T04:17:47.062Z,34.40
2018-03-28T04:20:22.166Z,35.67
2018-03-28T04:22:57.191Z,36.70
2018-03-28T04:25:32.173Z,32.90
2018-03-28T04:28:07.146Z,33.97
2018-03-28T04:30:42.048Z,34.00
2018-03-28T04:33:17.247Z,33.50
2018-03-28T04:35:52.790Z,34.30
2018-03-28T04:38:27.437Z,32.80
2018-03-28T04:41:02.321Z,34.00
2018-03-28T04:43:37.436Z,31.90
2018-03-28T04:46:12.434Z,31.43
2018-03-28T04:48:47.418Z,35.80
2018-03-28T04:51:22.512Z,33.27
2018-03-28T04:53:57.419Z,32.73
2018-03-28T04:56:32.408Z,33.40
2018-03-28T04:59:07.736Z,34.67
2018-03-28T05:01:42.621Z,31.17
2018-03-28T05:04:17.904Z,31.93
2018-03-28T05:06:53.056Z,32.90
2018-03-28T05:09:28.364Z,29.63
2018-03-28T05:12:03.485Z,31.87
2018-03-28T05:14:38.580Z,31.27
2018-03-28T05:17:14.196Z,30.30
2018-03-28T05:19:48.792Z,32.60
2018-03-28T05:22:24.198Z,31.67
2018-03-28T05:24:58.842Z,32.03
2018-03-28T05:27:33.780Z,28.07
2018-03-28T05:30:09.134Z,34.47
2018-03-28T05:32:43.561Z,28.10
2018-03-28T05:35:19.316Z,30.48
2018-03-28T05:37:54.506Z,29.83
2018-03-28T05:40:29.666Z,30.30
2018-03-28T05:43:05.187Z,31.80
2018-03-28T05:45:39.607Z,31.23
2018-03-28T05:48:14.648Z,29.70
2018-03-28T05:50:49.420Z,31.77
2018-03-28T05:53:24.798Z,30.45
2018-03-28T05:55:59.619Z,30.27
2018-03-28T05:58:34.402Z,26.67
2018-03-28T06:01:09.115Z,29.20
2018-03-28T06:03:44.339Z,32.30
2018-03-28T06:06:19.452Z,30.60
2018-03-28T06:08:55.360Z,30.80
2018-03-28T06:11:30.283Z,30.50
2018-03-28T06:14:04.986Z,27.40
2018-03-28T06:16:40.396Z,27.75
2018-03-28T06:19:15.258Z,30.30
2018-03-28T06:21:50.415Z,30.70
2018-03-28T06:24:25.668Z,30.43
2018-03-28T06:27:00.839Z,25.53
2018-03-28T06:29:35.942Z,26.23
2018-03-28T06:32:11.767Z,27.05
2018-03-28T06:34:46.507Z,28.27
2018-03-28T06:37:21.632Z,27.60
2018-03-28T06:39:56.579Z,28.80
2018-03-28T06:42:31.696Z,28.23
2018-03-28T06:45:06.882Z,30.13
2018-03-28T06:47:41.592Z,27.37
2018-03-28T06:50:16.701Z,28.27
2018-03-28T06:52:51.492Z,29.85
2018-03-28T06:55:26.108Z,31.10
2018-03-28T06:58:01.414Z,28.77
2018-03-28T07:00:36.558Z,26.73
2018-03-28T07:03:11.881Z,26.20
2018-03-28T07:05:46.988Z,30.47
2018-03-28T07:08:22.131Z,26.65
2018-03-28T07:10:56.862Z,29.17
2018-03-28T07:13:31.848Z,28.07
2018-03-28T07:16:06.576Z,31.57
2018-03-28T07:18:41.640Z,28.30
2018-03-28T07:21:16.591Z,31.40
2018-03-28T07:23:51.580Z,29.20
2018-03-28T07:26:26.674Z,27.90
2018-03-28T07:29:01.228Z,28.40
2018-03-28T07:31:36.116Z,29.63
2018-03-28T07:34:12.007Z,28.17
2018-03-28T07:36:46.411Z,28.63
2018-03-28T07:39:21.359Z,28.75
2018-03-28T07:41:56.522Z,30.10
2018-03-28T07:44:31.540Z,27.97
2018-03-28T07:47:06.670Z,28.10
2018-03-28T07:49:41.578Z,30.17
2018-03-28T07:52:16.607Z,26.70
2018-03-28T07:54:51.191Z,29.63
2018-03-28T07:57:26.080Z,28.87
2018-03-28T08:00:01.204Z,27.33
2018-03-28T08:02:36.393Z,30.12
2018-03-28T08:05:11.912Z,27.85
2018-03-28T08:07:46.974Z,28.23
2018-03-28T08:10:21.914Z,30.67
2018-03-28T08:12:56.712Z,28.93
2018-03-28T08:15:31.747Z,29.40
2018-03-28T08:18:06.263Z,27.97
2018-03-28T08:20:41.375Z,26.57
2018-03-28T08:23:16.812Z,25.60
2018-03-28T08:25:51.752Z,29.60
2018-03-28T08:28:26.832Z,26.87
2018-03-28T08:31:01.335Z,30.80
2018-03-28T08:33:36.588Z,30.00
2018-03-28T08:36:11.932Z,31.50
2018-03-28T08:38:47.056Z,31.10
2018-03-28T08:41:21.969Z,29.42
2018-03-28T08:43:56.959Z,28.67
2018-03-28T08:46:32.026Z,27.33
2018-03-28T08:49:06.996Z,26.60
2018-03-28T08:51:41.988Z,25.90
2018-03-28T08:54:17.109Z,29.20
2018-03-28T08:56:51.774Z,27.17
2018-03-28T08:59:26.976Z,27.50
2018-03-28T09:02:01.859Z,25.50
2018-03-28T09:04:36.804Z,25.80
2018-03-28T09:07:12.062Z,26.60
2018-03-28T09:09:47.624Z,25.45
2018-03-28T09:12:22.248Z,22.60
2018-03-28T09:14:56.978Z,23.90
2018-03-28T09:17:31.771Z,24.60
2018-03-28T09:20:07.024Z,21.27
2018-03-28T09:22:41.719Z,22.47
2018-03-28T09:25:17.266Z,23.03
2018-03-28T09:27:51.764Z,22.50
2018-03-28T09:30:26.750Z,22.73
2018-03-28T09:33:01.811Z,18.40
2018-03-28T09:35:36.767Z,21.80
2018-03-28T09:38:12.172Z,22.27
2018-03-28T09:40:47.189Z,20.07
2018-03-28T09:43:22.075Z,19.00
2018-03-28T09:45:57.040Z,18.90
2018-03-28T09:48:31.885Z,18.50
2018-03-28T09:51:06.907Z,17.03
2018-03-28T09:53:41.768Z,15.13
2018-03-28T09:56:16.904Z,16.37
2018-03-28T09:58:51.970Z,14.57
2018-03-28T10:01:29.961Z,14.38
2018-03-28T10:04:10.248Z,14.50
2018-03-28T10:06:44.644Z,13.97
2018-03-28T10:09:19.967Z,13.75
2018-03-28T10:11:55.880Z,13.27
2018-03-28T10:14:30.779Z,11.93
2018-03-28T10:17:05.067Z,13.70
2018-03-28T10:19:40.091Z,11.80
2018-03-28T10:22:14.916Z,15.07
2018-03-28T10:24:50.059Z,12.97
2018-03-28T10:27:25.015Z,12.15
2018-03-28T10:29:59.832Z,13.43
2018-03-28T10:32:34.805Z,14.73
2018-03-28T10:35:09.958Z,13.40
2018-03-28T10:37:44.515Z,13.13
2018-03-28T10:40:19.272Z,14.80
2018-03-28T10:42:53.991Z,13.77
2018-03-28T10:45:29.783Z,13.80
2018-03-28T10:48:04.863Z,13.98
2018-03-28T10:50:40.308Z,13.90
2018-03-28T10:53:15.455Z,12.80
2018-03-28T10:55:50.208Z,15.33
2018-03-28T10:58:25.280Z,14.10
2018-03-28T11:01:00.175Z,14.77
2018-03-28T11:03:35.036Z,13.17
2018-03-28T11:06:10.076Z,17.50
2018-03-28T11:08:44.980Z,16.10
2018-03-28T11:11:20.152Z,17.17
2018-03-28T11:13:54.559Z,17.97
2018-03-28T11:16:29.726Z,17.10
2018-03-28T11:19:04.537Z,17.97
2018-03-28T11:21:40.057Z,18.77
2018-03-28T11:24:14.808Z,16.40
2018-03-28T11:26:50.015Z,17.43
2018-03-28T11:29:24.539Z,17.25
2018-03-28T11:31:59.452Z,16.53
2018-03-28T11:34:34.515Z,16.10
2018-03-28T11:37:10.044Z,18.50
2018-03-28T11:39:44.972Z,17.37
2018-03-28T11:42:20.000Z,18.60
2018-03-28T11:44:55.056Z,15.30
2018-03-28T11:47:30.477Z,15.10
2018-03-28T11:50:04.846Z,17.60
2018-03-28T11:52:40.189Z,20.00
2018-03-28T11:55:15.189Z,16.33
2018-03-28T11:57:50.192Z,16.63
2018-03-28T12:00:25.119Z,18.23
2018-03-28T12:03:00.076Z,15.90
2018-03-28T12:05:35.075Z,15.73
2018-03-28T12:08:09.587Z,17.07
2018-03-28T12:10:44.556Z,15.63
2018-03-28T12:13:19.484Z,15.63
2018-03-28T12:15:54.219Z,17.47
2018-03-28T12:18:29.358Z,18.15
2018-03-28T12:21:04.182Z,18.40
2018-03-28T12:23:38.839Z,16.70
2018-03-28T12:26:14.402Z,16.73
2018-03-28T12:28:49.575Z,16.73
2018-03-28T12:31:24.334Z,16.23
2018-03-28T12:33:59.139Z,16.30
2018-03-28T12:36:33.641Z,15.97
2018-03-28T12:39:07.903Z,17.60
2018-03-28T12:41:43.126Z,15.48
2018-03-28T12:44:18.342Z,16.95
2018-03-28T12:46:53.723Z,16.50
2018-03-28T12:49:28.317Z,14.53
2018-03-28T12:52:03.354Z,15.07
2018-03-28T12:54:38.242Z,16.50
2018-03-28T12:57:12.791Z,15.90
2018-03-28T12:59:48.254Z,14.93
2018-03-28T13:02:23.466Z,15.67
2018-03-28T13:04:58.379Z,14.90
2018-03-28T13:07:32.771Z,13.83
2018-03-28T13:10:07.646Z,14.43
2018-03-28T13:12:42.385Z,12.00
2018-03-28T13:15:17.279Z,12.90
2018-03-28T13:17:52.227Z,12.77
2018-03-28T13:20:26.978Z,15.23
2018-03-28T13:23:02.425Z,15.13
2018-03-28T13:25:37.307Z,12.75
2018-03-28T13:28:12.721Z,12.70
2018-03-28T13:30:47.798Z,12.57
2018-03-28T13:33:22.747Z,12.90
2018-03-28T13:35:57.633Z,12.37
2018-03-28T13:38:32.527Z,12.93
2018-03-28T13:41:07.454Z,12.60
2018-03-28T13:43:42.168Z,13.97
2018-03-28T13:46:17.555Z,13.30
2018-03-28T13:48:52.363Z,13.55
2018-03-28T13:51:27.272Z,12.98
2018-03-28T13:54:01.752Z,13.73
2018-03-28T13:56:36.480Z,13.50
2018-03-28T13:59:12.683Z,16.25
2018-03-28T14:01:47.495Z,16.80
2018-03-28T14:04:22.648Z,16.57
2018-03-28T14:06:57.248Z,20.10
2018-03-28T14:09:32.306Z,20.80
2018-03-28T14:12:07.851Z,22.30
2018-03-28T14:14:42.871Z,24.30
2018-03-28T14:17:17.918Z,17.80
2018-03-28T14:19:52.523Z,22.73
2018-03-28T14:22:27.591Z,23.02
2018-03-28T14:25:02.516Z,24.83
2018-03-28T14:27:38.331Z,23.02
2018-03-28T14:30:12.918Z,24.53
2018-03-28T14:32:48.360Z,23.25
2018-03-28T14:35:22.873Z,23.00
2018-03-28T14:37:58.013Z,22.20
2018-03-28T14:40:33.177Z,24.50
2018-03-28T14:43:08.379Z,23.48
2018-03-28T14:45:43.530Z,23.77
2018-03-28T14:48:18.541Z,22.30
2018-03-28T14:50:58.417Z,24.60
2018-03-28T14:53:32.914Z,25.33
2018-03-28T14:56:07.684Z,25.40
2018-03-28T14:58:42.784Z,25.27
2018-03-28T15:01:17.492Z,24.53
2018-03-28T15:03:52.584Z,23.73
2018-03-28T15:06:27.892Z,23.10
2018-03-28T15:09:02.947Z,24.25
2018-03-28T15:11:37.835Z,23.07
2018-03-28T15:14:12.909Z,25.03
2018-03-28T15:16:47.741Z,25.30
2018-03-28T15:19:22.451Z,24.80
2018-03-28T15:21:57.606Z,24.57
2018-03-28T15:24:32.616Z,24.70
2018-03-28T15:27:07.612Z,24.60
2018-03-28T15:29:42.613Z,24.93
2018-03-28T15:32:17.612Z,25.47
2018-03-28T15:34:52.610Z,25.27
2018-03-28T15:37:27.718Z,22.90
2018-03-28T15:40:02.535Z,24.03
2018-03-28T15:42:37.592Z,21.23
2018-03-28T15:45:12.987Z,22.08
2018-03-28T15:47:48.108Z,18.20
2018-03-28T15:50:23.108Z,14.30
2018-03-28T15:52:58.556Z,13.25
2018-03-28T15:55:33.984Z,15.00
2018-03-28T15:58:08.766Z,12.03
2018-03-28T16:00:43.976Z,12.93
2018-03-28T16:06:19.215Z,11.37
2018-03-28T16:08:53.987Z,12.90
2018-03-28T16:11:29.155Z,13.00
2018-03-28T16:14:03.776Z,9.83
2018-03-28T16:16:38.843Z,10.47
2018-03-28T16:19:13.655Z,10.10
2018-03-28T16:21:48.728Z,10.37
2018-03-28T16:24:23.624Z,10.88
2018-03-28T16:26:58.406Z,9.50
2018-03-28T16:29:33.251Z,10.80
2018-03-28T16:32:08.239Z,12.33
2018-03-28T16:34:43.019Z,11.87
2018-03-28T16:37:18.125Z,13.73
2018-03-28T16:39:52.742Z,11.67
2018-03-28T16:42:27.772Z,12.75
2018-03-28T16:45:02.196Z,12.97
2018-03-28T16:47:37.660Z,13.23
2018-03-28T16:50:12.997Z,13.88
2018-03-28T16:52:47.840Z,11.60
2018-03-28T16:55:22.879Z,11.80
2018-03-28T16:57:57.685Z,12.10
2018-03-28T17:00:32.612Z,13.32
2018-03-28T17:03:07.985Z,14.17
2018-03-28T17:05:42.895Z,12.90
2018-03-28T17:08:18.037Z,12.53
2018-03-28T17:10:52.819Z,10.77
2018-03-28T17:13:27.834Z,11.73
2018-03-28T17:16:02.694Z,12.55
2018-03-28T17:18:37.775Z,13.13
2018-03-28T17:21:15.083Z,19.85
2018-03-28T17:23:50.307Z,20.07
2018-03-28T17:26:26.093Z,20.00
2018-03-28T17:29:00.916Z,19.43
2018-03-28T17:31:35.704Z,22.35
2018-03-28T17:34:10.836Z,20.40
2018-03-28T17:36:45.843Z,19.07
2018-03-28T17:39:20.504Z,12.50
2018-03-28T17:41:55.259Z,11.07
2018-03-28T17:44:30.163Z,11.12
2018-03-28T17:47:05.012Z,11.57
2018-03-28T17:49:40.117Z,11.60
2018-03-28T17:52:14.816Z,12.10
2018-03-28T17:54:49.931Z,13.93
2018-03-28T17:57:28.480Z,15.25
2018-03-28T18:00:03.144Z,14.33
2018-03-28T18:02:38.705Z,9.20
2018-03-28T18:05:13.551Z,11.80
2018-03-28T18:07:48.407Z,10.40
2018-03-28T18:10:23.823Z,11.12
2018-03-28T18:12:58.898Z,11.05
2018-03-28T18:15:33.839Z,12.03
2018-03-28T18:18:08.866Z,9.33
2018-03-28T18:20:43.763Z,8.13
2018-03-28T18:23:18.634Z,11.30
2018-03-28T18:25:53.407Z,10.90
2018-03-28T18:28:28.516Z,11.47
2018-03-28T18:31:03.927Z,9.98
2018-03-28T18:33:39.415Z,9.87
2018-03-28T18:36:14.347Z,7.50
2018-03-28T18:38:49.351Z,10.97
2018-03-28T18:41:24.492Z,8.20
2018-03-28T18:43:59.095Z,10.33
2018-03-28T18:46:36.068Z,8.60
2018-03-28T18:49:10.993Z,7.80
2018-03-28T18:51:45.730Z,9.60
2018-03-28T18:54:20.681Z,9.02
2018-03-28T18:56:55.358Z,7.70
2018-03-28T18:59:30.731Z,9.77
2018-03-28T19:02:04.937Z,8.20
2018-03-28T19:04:40.039Z,9.13
2018-03-28T19:07:14.922Z,8.60
2018-03-28T19:09:49.979Z,10.30
2018-03-28T19:12:24.566Z,9.43
2018-03-28T19:14:59.424Z,10.17
2018-03-28T19:17:34.427Z,10.60
2018-03-28T19:20:09.287Z,11.43
2018-03-28T19:22:44.155Z,11.60
2018-03-28T19:25:19.213Z,10.95
2018-03-28T19:27:54.121Z,11.33
2018-03-28T19:30:29.708Z,10.43
2018-03-28T19:33:04.625Z,9.37
2018-03-28T19:35:40.020Z,9.50
2018-03-28T19:38:15.304Z,12.17
2018-03-28T19:40:50.183Z,12.20
2018-03-28T19:43:24.650Z,12.20
2018-03-28T19:45:59.142Z,12.73
2018-03-28T19:48:34.935Z,14.00
2018-03-28T19:51:10.012Z,12.68
2018-03-28T19:53:44.522Z,13.40
2018-03-28T19:56:19.535Z,16.35
2018-03-28T19:58:54.623Z,18.37
2018-03-28T20:01:30.142Z,16.83
2018-03-28T20:04:05.150Z,14.90
2018-03-28T20:06:40.135Z,13.02
2018-03-28T20:09:14.644Z,15.60
2018-03-28T20:11:49.816Z,14.15
2018-03-28T20:14:25.306Z,13.30
2018-03-28T20:17:00.210Z,15.20
2018-03-28T20:19:35.184Z,14.38
2018-03-28T20:22:10.347Z,13.90
2018-03-28T20:24:45.178Z,14.07
2018-03-28T20:27:19.768Z,13.37
2018-03-28T20:29:55.295Z,14.10
2018-03-28T20:32:30.345Z,12.97
2018-03-28T20:35:05.400Z,16.00
2018-03-28T20:37:40.384Z,14.20
2018-03-28T20:40:15.875Z,13.50
2018-03-28T20:42:50.803Z,13.30
2018-03-28T20:45:25.363Z,13.57
2018-03-28T20:47:59.841Z,14.00
2018-03-28T20:50:34.781Z,15.27
2018-03-28T20:53:10.258Z,14.25
2018-03-28T20:55:45.344Z,13.50
2018-03-28T20:58:20.283Z,12.90
2018-03-28T21:00:54.910Z,12.87
2018-03-28T21:03:29.451Z,13.00
2018-03-28T21:06:03.875Z,11.90
2018-03-28T21:08:38.595Z,11.77
2018-03-28T21:11:13.394Z,11.60
2018-03-28T21:13:48.431Z,12.20
2018-03-28T21:16:23.341Z,11.88
2018-03-28T21:18:58.419Z,11.70
2018-03-28T21:21:33.423Z,13.00
2018-03-28T21:24:09.043Z,12.40
2018-03-28T21:26:43.871Z,11.60
2018-03-28T21:29:19.053Z,12.70
2018-03-28T21:31:53.641Z,13.23
2018-03-28T21:34:28.692Z,11.83
2018-03-28T21:37:03.559Z,14.00
2018-03-28T21:39:38.484Z,12.50
2018-03-28T21:42:13.809Z,15.67
2018-03-28T21:44:48.779Z,15.10
2018-03-28T21:47:23.529Z,17.00
2018-03-28T21:49:58.562Z,13.90
2018-03-28T21:52:33.961Z,15.73
2018-03-28T21:55:08.619Z,13.87
2018-03-28T21:57:43.534Z,14.07
2018-03-28T22:00:18.395Z,13.87
2018-03-28T22:03:01.166Z,13.20
2018-03-28T22:05:38.693Z,15.27
2018-03-28T22:08:13.843Z,14.40
2018-03-28T22:10:48.979Z,15.03
2018-03-28T22:13:23.907Z,14.20
2018-03-28T22:15:58.830Z,12.40
2018-03-28T22:18:33.537Z,11.03
2018-03-28T22:21:08.455Z,12.30
2018-03-28T22:23:43.115Z,12.70
2018-03-28T22:26:17.706Z,10.05
2018-03-28T22:28:52.682Z,13.30
2018-03-28T22:31:27.754Z,13.57
2018-03-28T22:34:02.564Z,11.27
2018-03-28T22:36:37.519Z,13.70
2018-03-28T22:39:13.920Z,12.82
2018-03-28T22:41:49.494Z,10.73
2018-03-28T22:44:24.068Z,8.45
2018-03-28T22:46:59.190Z,6.13
2018-03-28T22:49:34.098Z,7.03
2018-03-28T22:52:09.042Z,10.20
2018-03-28T22:54:44.202Z,5.07
2018-03-28T22:57:19.196Z,4.70
2018-03-28T22:59:53.796Z,3.83
2018-03-28T23:02:28.880Z,3.50
2018-03-28T23:05:03.561Z,3.80
2018-03-28T23:07:39.182Z,2.90
2018-03-28T23:10:14.484Z,3.92
2018-03-28T23:12:49.183Z,4.70
2018-03-28T23:15:23.970Z,3.00
2018-03-28T23:17:58.854Z,4.17
2018-03-28T23:20:33.675Z,4.90
2018-03-28T23:23:09.191Z,3.00
2018-03-28T23:25:43.966Z,3.80
2018-03-28T23:28:18.594Z,4.10
2018-03-28T23:30:53.389Z,3.77
2018-03-28T23:33:28.050Z,3.93
2018-03-28T23:36:03.052Z,2.00
2018-03-28T23:38:37.751Z,3.37
2018-03-28T23:41:13.934Z,3.40
2018-03-28T23:43:48.727Z,2.57
2018-03-28T23:46:23.719Z,3.13
2018-03-28T23:48:58.639Z,3.47
2018-03-28T23:51:33.714Z,4.30
2018-03-28T23:54:08.716Z,3.40
2018-03-28T23:56:44.118Z,2.57
2018-03-28T23:59:19.074Z,2.47
